Flight Track Log - Related Links

Times and Time Zones

All times are in EDT time to prevent confusion due to time zone crossing. See the N99PN flight status page for this flight to view local times or setup timezone preferences in your user account.

Time Position Orientation Groundspeed Altitude Reporting Facility
EDT Latitude Longitude Course Direction KTS MPH feet Rate Location/Type
Thu 03:52:19 PM 26.6122 -77.7661 272° West 163 188 8,100  Level Miami Center
Thu 03:53:21 PM 26.6142 -77.8203 272° West 168 193 8,100  Level Miami Center
Thu 03:54:23 PM 26.6172 -77.8714 274° West 168 193 8,100 48 Level Miami Center
Thu 03:55:25 PM 26.6211 -77.9275 274° West 168 193 8,200 48 Climbing Miami Center
Thu 03:56:27 PM 26.6197 -77.9781 268° West 168 193 8,200 -48 Level Miami Center
Thu 03:57:00 PM 26.5266 -77.7545 272° West  Level FlightAware Approximate
Thu 03:57:29 PM 26.6156 -78.0322 265° West 167 192 8,100  Level Miami Center
Thu 03:58:31 PM 26.6125 -78.0864 266° West 166 191 8,200  Climbing Miami Center
Thu 03:59:33 PM 26.6089 -78.1436 266° West 170 196 8,100  Descending Miami Center
Thu 04:00:35 PM 26.6039 -78.2006 264° West 177 204 8,200 48 Climbing Miami Center
Thu 04:01:37 PM 26.6006 -78.2572 266° West 179 206 8,200 -48 Level Miami Center
Thu 04:02:39 PM 26.5972 -78.3186 267° West 180 207 8,100 -48 Descending Miami Center
Thu 04:03:41 PM 26.5944 -78.3756 267° West 180 207 8,100  Level Miami Center
Thu 04:04:43 PM 26.5931 -78.4361 269° West 186 214 8,100 48 Level Miami Center
Thu 04:05:45 PM 26.5911 -78.4989 268° West 186 214 8,200  Climbing Miami Center
Thu 04:06:47 PM 26.5906 -78.5539 269° West 186 214 8,100 -48 Descending Miami Center
Thu 04:07:49 PM 26.5881 -78.6125 267° West 185 213 8,100  Level Miami Center
Thu 04:08:51 PM 26.5875 -78.6728 269° West 184 212 8,100  Level Miami Center
Thu 04:09:53 PM 26.5889 -78.7197 272° West 178 205 8,100  Level Miami Center
Thu 04:10:55 PM 26.6178 -78.7697 303° West 185 213 8,100  Level Miami Center
Thu 04:11:57 PM 26.6486 -78.8281 301° West 185 213 8,100  Level Miami Center
Thu 04:12:59 PM 26.6775 -78.8775 303° West 185 213 8,100 -48 Level Miami Center
Thu 04:14:01 PM 26.7033 -78.9264 301° West 185 213 8,000  Descending Miami Center
Thu 04:15:03 PM 26.7308 -78.9736 303° West 185 213 8,100  Climbing Miami Center
Thu 04:16:05 PM 26.7583 -79.0217 303° West 184 212 8,000  Descending Miami Center
Thu 04:17:06 PM 26.7850 -79.0692 302° West 181 208 8,100  Climbing Miami Center
Thu 04:18:08 PM 26.8197 -79.1247 305° West 183 211 8,000  Descending Miami Center
Thu 04:19:10 PM 26.8472 -79.1672 306° West 171 197 8,100 -48 Climbing Miami Center
Thu 04:20:12 PM 26.8753 -79.2086 307° West 166 191 7,900 -48 Descending Miami Center
Thu 04:21:14 PM 26.9047 -79.2536 306° West 176 203 8,000 97 Climbing Miami Center
Thu 04:22:16 PM 26.9375 -79.3036 306° West 181 208 8,100  Climbing Miami Center
Thu 04:23:18 PM 26.9700 -79.3492 309° West 179 206 8,000 -48 Descending Miami Center
Thu 04:24:20 PM 27.0014 -79.3956 307° West 180 207 8,000  Level Miami Center
Thu 04:25:22 PM 27.0342 -79.4422 308° West 181 208 8,000 -48 Level Miami Center
Thu 04:26:24 PM 27.0650 -79.4839 310° West 179 206 7,900 -339 Descending Miami Center
Thu 04:27:26 PM 27.1022 -79.5317 311° West 194 223 7,300 -484 Descending Miami Center
Thu 04:28:28 PM 27.1358 -79.5817 307° West 196 226 6,900 -581 Descending Miami Center
Thu 04:29:30 PM 27.1722 -79.6333 308° West 197 227 6,100 -774 Descending Miami Center
Thu 04:30:32 PM 27.2031 -79.6889 302° West 200 230 5,300 -629 Descending Miami Center
Thu 04:31:34 PM 27.2336 -79.7428 303° West 199 229 4,800 -581 Descending Miami Center
Thu 04:32:36 PM 27.2625 -79.7939 302° West 202 232 4,100 -339 Descending Miami Center
Thu 04:33:38 PM 27.2900 -79.8414 303° West 189 217 4,100 -48 Level Miami Center
Thu 04:34:40 PM 27.3208 -79.8947 303° West 184 212 4,000 -48 Descending Miami Center
Thu 04:35:42 PM 27.3500 -79.9422 305° West 180 207 4,000  Level Miami Center
Thu 04:36:43 PM 27.3761 -79.9928 300° West 180 207 4,000  Level Miami Center
Thu 04:37:45 PM 27.3933 -80.0397 292° West 173 199 4,000 -387 Level Miami Center
Thu 04:38:47 PM 27.4131 -80.0947 292° West 181 208 3,200 -435 Descending Miami Center
Thu 04:39:49 PM 27.4253 -80.1550 283° West 186 214 3,100 -97 Descending Miami Center
Thu 04:40:51 PM 27.4394 -80.2111 286° West 183 211 3,000 -48 Descending Miami Center
Thu 04:41:53 PM 27.4597 -80.2650 293° West 180 207 3,000  Level Miami Center
Thu 04:42:55 PM 27.4797 -80.3192 293° West 180 207 3,000  Level Miami Center
Thu 04:43:57 PM 27.4983 -80.3675 293° West 175 201 3,000  Level Miami Center
Thu 04:44:58 PM 27.5172 -80.4183 293° West 170 196 3,000  Level Miami Center
Thu 04:46:00 PM 27.5347 -80.4656 293° West 158 182 3,000  Level Miami Center
Thu 04:47:02 PM 27.5531 -80.5131 294° West 159 183 3,000  Level Miami Center
Thu 04:48:04 PM 27.5647 -80.5625 285° West 158 182 3,000  Level Miami Center
Thu 04:49:06 PM 27.5753 -80.6075 285° West 157 181 3,000 -48 Level Miami Center
Thu 04:50:08 PM 27.6056 -80.6425 314° West 176 203 2,900 49 Descending Miami Center
Thu 04:51:09 PM 27.6233 -80.6022 64° Northeast 147 169 3,100 49 Climbing Miami Center
Thu 04:52:11 PM 27.6306 -80.5572 80° East 146 168 3,000 -48 Descending Miami Center
Thu 04:53:13 PM 27.6331 -80.5189 86° East 128 147 3,000 -484 Level Miami Center
Thu 04:54:15 PM 27.6086 -80.4983 143° Southeast 115 132 2,000 -537 Descending Miami Center
Thu 04:55:16 PM 27.5878 -80.4750 135° Southeast 103 119 1,900 -49 Descending Miami Center
Thu 04:56:18 PM 27.5678 -80.4506 133° Southeast 102 117 1,900 -290 Level Miami Center
Thu 04:57:20 PM 27.5464 -80.4275 136° Southeast 102 117 1,300 -532 Descending Miami Center
Thu 04:58:22 PM 27.5256 -80.4039 135° Southeast 102 117 800 -435 Descending Miami Center
Thu 04:59:24 PM 27.5075 -80.3844 136° Southeast 97 112 400 -290 Descending Miami Center
Thu 05:00:26 PM 27.4906 -80.3653 135° Southeast 97 112 200 -194 Descending Miami Center

Login

Don't have an account? Register now (free) for customized features, flight alerts, and more!